sensor_id;sensor_type;location;lat;lon;timestamp;P1;durP1;ratioP1;P2;durP2;ratioP2
8232;SDS011;4157;48.074;9.952;2022-08-21T00:00:12;5.32;;;3.78;;
8232;SDS011;4157;48.074;9.952;2022-08-21T00:02:44;5.97;;;4.10;;
8232;SDS011;4157;48.074;9.952;2022-08-21T00:05:12;6.20;;;3.08;;
8232;SDS011;4157;48.074;9.952;2022-08-21T00:07:40;5.07;;;2.90;;
8232;SDS011;4157;48.074;9.952;2022-08-21T00:10:08;5.53;;;3.10;;
8232;SDS011;4157;48.074;9.952;2022-08-21T00:12:36;4.68;;;2.85;;
8232;SDS011;4157;48.074;9.952;2022-08-21T00:15:06;5.50;;;3.30;;
8232;SDS011;4157;48.074;9.952;2022-08-21T00:17:36;4.85;;;3.17;;
8232;SDS011;4157;48.074;9.952;2022-08-21T00:20:04;4.95;;;2.78;;
8232;SDS011;4157;48.074;9.952;2022-08-21T00:22:34;4.78;;;2.72;;
8232;SDS011;4157;48.074;9.952;2022-08-21T00:25:02;4.25;;;3.03;;
8232;SDS011;4157;48.074;9.952;2022-08-21T00:27:30;5.40;;;2.65;;
8232;SDS011;4157;48.074;9.952;2022-08-21T00:29:58;4.65;;;2.40;;
8232;SDS011;4157;48.074;9.952;2022-08-21T00:32:27;4.13;;;2.60;;
8232;SDS011;4157;48.074;9.952;2022-08-21T00:34:55;4.75;;;3.00;;
8232;SDS011;4157;48.074;9.952;2022-08-21T00:37:23;3.80;;;2.50;;
8232;SDS011;4157;48.074;9.952;2022-08-21T00:39:51;3.55;;;2.20;;
8232;SDS011;4157;48.074;9.952;2022-08-21T00:42:19;4.05;;;2.47;;
8232;SDS011;4157;48.074;9.952;2022-08-21T00:44:47;5.38;;;2.20;;
8232;SDS011;4157;48.074;9.952;2022-08-21T00:47:15;3.60;;;2.30;;
8232;SDS011;4157;48.074;9.952;2022-08-21T00:49:45;6.53;;;2.20;;
8232;SDS011;4157;48.074;9.952;2022-08-21T00:52:13;5.30;;;2.70;;
8232;SDS011;4157;48.074;9.952;2022-08-21T00:54:43;4.65;;;2.50;;
8232;SDS011;4157;48.074;9.952;2022-08-21T00:57:13;5.28;;;2.42;;
8232;SDS011;4157;48.074;9.952;2022-08-21T00:59:41;5.00;;;2.85;;
8232;SDS011;4157;48.074;9.952;2022-08-21T01:02:11;3.75;;;2.35;;
8232;SDS011;4157;48.074;9.952;2022-08-21T01:04:39;4.28;;;2.47;;
8232;SDS011;4157;48.074;9.952;2022-08-21T01:07:09;3.50;;;2.03;;
8232;SDS011;4157;48.074;9.952;2022-08-21T01:09:38;4.53;;;2.58;;
8232;SDS011;4157;48.074;9.952;2022-08-21T01:12:06;4.70;;;2.42;;
8232;SDS011;4157;48.074;9.952;2022-08-21T01:14:34;4.28;;;2.60;;
8232;SDS011;4157;48.074;9.952;2022-08-21T01:17:02;3.42;;;2.17;;
8232;SDS011;4157;48.074;9.952;2022-08-21T01:19:31;3.65;;;2.15;;
8232;SDS011;4157;48.074;9.952;2022-08-21T01:22:00;3.38;;;2.15;;
8232;SDS011;4157;48.074;9.952;2022-08-21T01:24:28;3.95;;;2.40;;
8232;SDS011;4157;48.074;9.952;2022-08-21T01:26:57;3.63;;;2.17;;
8232;SDS011;4157;48.074;9.952;2022-08-21T01:29:27;5.65;;;2.78;;
8232;SDS011;4157;48.074;9.952;2022-08-21T01:31:57;5.45;;;2.55;;
8232;SDS011;4157;48.074;9.952;2022-08-21T01:34:25;4.57;;;2.58;;
8232;SDS011;4157;48.074;9.952;2022-08-21T01:36:53;5.10;;;2.60;;
8232;SDS011;4157;48.074;9.952;2022-08-21T01:39:22;3.78;;;2.40;;
8232;SDS011;4157;48.074;9.952;2022-08-21T01:41:50;3.90;;;2.30;;
8232;SDS011;4157;48.074;9.952;2022-08-21T01:44:19;4.15;;;2.20;;
8232;SDS011;4157;48.074;9.952;2022-08-21T01:46:47;4.43;;;2.40;;
8232;SDS011;4157;48.074;9.952;2022-08-21T01:49:16;4.63;;;2.33;;
8232;SDS011;4157;48.074;9.952;2022-08-21T01:51:43;5.10;;;2.38;;
8232;SDS011;4157;48.074;9.952;2022-08-21T01:54:11;3.72;;;2.00;;
8232;SDS011;4157;48.074;9.952;2022-08-21T01:56:41;4.63;;;2.53;;
8232;SDS011;4157;48.074;9.952;2022-08-21T01:59:10;4.78;;;2.42;;
8232;SDS011;4157;48.074;9.952;2022-08-21T02:01:38;3.75;;;2.40;;
8232;SDS011;4157;48.074;9.952;2022-08-21T02:04:06;4.65;;;2.60;;
8232;SDS011;4157;48.074;9.952;2022-08-21T02:06:34;4.25;;;2.40;;
8232;SDS011;4157;48.074;9.952;2022-08-21T02:09:02;3.58;;;2.20;;
8232;SDS011;4157;48.074;9.952;2022-08-21T02:11:30;3.90;;;2.20;;
8232;SDS011;4157;48.074;9.952;2022-08-21T02:13:59;3.70;;;2.10;;
8232;SDS011;4157;48.074;9.952;2022-08-21T02:16:27;5.72;;;2.60;;
8232;SDS011;4157;48.074;9.952;2022-08-21T02:18:55;4.93;;;2.15;;
8232;SDS011;4157;48.074;9.952;2022-08-21T02:21:23;5.75;;;2.50;;
8232;SDS011;4157;48.074;9.952;2022-08-21T02:23:51;5.35;;;2.33;;
8232;SDS011;4157;48.074;9.952;2022-08-21T02:26:19;4.18;;;2.50;;
8232;SDS011;4157;48.074;9.952;2022-08-21T02:28:47;5.05;;;2.42;;
8232;SDS011;4157;48.074;9.952;2022-08-21T02:31:16;4.93;;;2.42;;
8232;SDS011;4157;48.074;9.952;2022-08-21T02:33:44;4.25;;;2.25;;
8232;SDS011;4157;48.074;9.952;2022-08-21T02:36:12;3.88;;;1.98;;
8232;SDS011;4157;48.074;9.952;2022-08-21T02:38:40;5.65;;;2.45;;
8232;SDS011;4157;48.074;9.952;2022-08-21T02:41:10;11.13;;;2.60;;
8232;SDS011;4157;48.074;9.952;2022-08-21T02:43:38;5.38;;;2.55;;
8232;SDS011;4157;48.074;9.952;2022-08-21T02:46:07;3.33;;;2.15;;
8232;SDS011;4157;48.074;9.952;2022-08-21T02:48:36;4.80;;;2.35;;
8232;SDS011;4157;48.074;9.952;2022-08-21T02:51:05;5.82;;;2.85;;
8232;SDS011;4157;48.074;9.952;2022-08-21T02:53:33;4.15;;;2.78;;
8232;SDS011;4157;48.074;9.952;2022-08-21T02:56:02;4.53;;;2.75;;
8232;SDS011;4157;48.074;9.952;2022-08-21T02:58:31;3.90;;;2.38;;
8232;SDS011;4157;48.074;9.952;2022-08-21T03:00:59;4.22;;;2.75;;
8232;SDS011;4157;48.074;9.952;2022-08-21T03:03:27;4.35;;;2.38;;
8232;SDS011;4157;48.074;9.952;2022-08-21T03:05:57;4.53;;;2.72;;
8232;SDS011;4157;48.074;9.952;2022-08-21T03:08:25;3.42;;;2.30;;
8232;SDS011;4157;48.074;9.952;2022-08-21T03:10:52;4.55;;;2.58;;
8232;SDS011;4157;48.074;9.952;2022-08-21T03:13:20;8.20;;;2.67;;
8232;SDS011;4157;48.074;9.952;2022-08-21T03:15:49;4.13;;;2.50;;
8232;SDS011;4157;48.074;9.952;2022-08-21T03:18:17;4.28;;;2.50;;
8232;SDS011;4157;48.074;9.952;2022-08-21T03:20:45;3.80;;;2.47;;
8232;SDS011;4157;48.074;9.952;2022-08-21T03:23:15;4.40;;;2.67;;
8232;SDS011;4157;48.074;9.952;2022-08-21T03:25:44;4.68;;;2.30;;
8232;SDS011;4157;48.074;9.952;2022-08-21T03:28:13;5.70;;;2.80;;
8232;SDS011;4157;48.074;9.952;2022-08-21T03:30:41;4.65;;;2.80;;
8232;SDS011;4157;48.074;9.952;2022-08-21T03:33:09;5.28;;;2.35;;
8232;SDS011;4157;48.074;9.952;2022-08-21T03:35:37;4.43;;;2.72;;
8232;SDS011;4157;48.074;9.952;2022-08-21T03:38:06;4.80;;;2.50;;
8232;SDS011;4157;48.074;9.952;2022-08-21T03:40:35;4.47;;;2.20;;
8232;SDS011;4157;48.074;9.952;2022-08-21T03:43:03;4.18;;;2.40;;
8232;SDS011;4157;48.074;9.952;2022-08-21T03:45:34;6.28;;;3.03;;
8232;SDS011;4157;48.074;9.952;2022-08-21T03:48:03;4.65;;;2.92;;
8232;SDS011;4157;48.074;9.952;2022-08-21T03:50:33;5.38;;;2.55;;
8232;SDS011;4157;48.074;9.952;2022-08-21T03:53:01;4.80;;;2.58;;
8232;SDS011;4157;48.074;9.952;2022-08-21T03:55:29;5.32;;;2.70;;
8232;SDS011;4157;48.074;9.952;2022-08-21T03:57:58;4.88;;;2.60;;
8232;SDS011;4157;48.074;9.952;2022-08-21T04:00:27;4.65;;;2.17;;
8232;SDS011;4157;48.074;9.952;2022-08-21T04:02:54;5.35;;;3.05;;
8232;SDS011;4157;48.074;9.952;2022-08-21T04:05:22;4.35;;;2.53;;
8232;SDS011;4157;48.074;9.952;2022-08-21T04:07:56;4.00;;;2.50;;
8232;SDS011;4157;48.074;9.952;2022-08-21T04:10:25;3.72;;;2.40;;
8232;SDS011;4157;48.074;9.952;2022-08-21T04:12:53;4.07;;;2.72;;
8232;SDS011;4157;48.074;9.952;2022-08-21T04:15:24;4.78;;;3.00;;
8232;SDS011;4157;48.074;9.952;2022-08-21T04:17:52;4.65;;;3.25;;
8232;SDS011;4157;48.074;9.952;2022-08-21T04:20:20;6.25;;;3.28;;
8232;SDS011;4157;48.074;9.952;2022-08-21T04:22:48;5.50;;;3.50;;
8232;SDS011;4157;48.074;9.952;2022-08-21T04:25:19;5.05;;;3.38;;
8232;SDS011;4157;48.074;9.952;2022-08-21T04:27:47;4.18;;;2.75;;
8232;SDS011;4157;48.074;9.952;2022-08-21T04:30:15;6.90;;;3.90;;
8232;SDS011;4157;48.074;9.952;2022-08-21T04:32:45;6.32;;;3.78;;
8232;SDS011;4157;48.074;9.952;2022-08-21T04:35:13;6.25;;;3.83;;
8232;SDS011;4157;48.074;9.952;2022-08-21T04:37:42;5.18;;;3.40;;
8232;SDS011;4157;48.074;9.952;2022-08-21T04:40:10;4.93;;;3.05;;
8232;SDS011;4157;48.074;9.952;2022-08-21T04:42:41;6.93;;;3.40;;
8232;SDS011;4157;48.074;9.952;2022-08-21T04:45:14;5.50;;;3.55;;
8232;SDS011;4157;48.074;9.952;2022-08-21T04:47:42;5.35;;;2.97;;
8232;SDS011;4157;48.074;9.952;2022-08-21T04:50:12;5.30;;;3.67;;
8232;SDS011;4157;48.074;9.952;2022-08-21T04:52:52;4.78;;;3.20;;
8232;SDS011;4157;48.074;9.952;2022-08-21T04:55:20;5.25;;;2.78;;
8232;SDS011;4157;48.074;9.952;2022-08-21T04:57:49;4.55;;;3.15;;
8232;SDS011;4157;48.074;9.952;2022-08-21T05:00:19;5.22;;;2.97;;
8232;SDS011;4157;48.074;9.952;2022-08-21T05:02:47;4.40;;;2.63;;
8232;SDS011;4157;48.074;9.952;2022-08-21T05:05:19;4.60;;;2.70;;
8232;SDS011;4157;48.074;9.952;2022-08-21T05:07:47;4.88;;;3.30;;
8232;SDS011;4157;48.074;9.952;2022-08-21T05:10:15;4.20;;;2.78;;
8232;SDS011;4157;48.074;9.952;2022-08-21T05:12:43;4.53;;;3.00;;
8232;SDS011;4157;48.074;9.952;2022-08-21T05:15:11;5.60;;;3.15;;
8232;SDS011;4157;48.074;9.952;2022-08-21T05:17:40;5.85;;;3.13;;
8232;SDS011;4157;48.074;9.952;2022-08-21T05:20:08;4.32;;;2.90;;
8232;SDS011;4157;48.074;9.952;2022-08-21T05:22:38;3.88;;;2.58;;
8232;SDS011;4157;48.074;9.952;2022-08-21T05:25:06;5.55;;;2.83;;
8232;SDS011;4157;48.074;9.952;2022-08-21T05:27:34;4.30;;;2.90;;
8232;SDS011;4157;48.074;9.952;2022-08-21T05:30:03;4.07;;;2.40;;
8232;SDS011;4157;48.074;9.952;2022-08-21T05:32:31;3.63;;;2.60;;
8232;SDS011;4157;48.074;9.952;2022-08-21T05:34:59;5.68;;;2.63;;
8232;SDS011;4157;48.074;9.952;2022-08-21T05:37:26;3.72;;;2.33;;
8232;SDS011;4157;48.074;9.952;2022-08-21T05:39:56;6.22;;;3.03;;
8232;SDS011;4157;48.074;9.952;2022-08-21T05:42:24;4.80;;;2.80;;
8232;SDS011;4157;48.074;9.952;2022-08-21T05:44:51;5.97;;;2.35;;
8232;SDS011;4157;48.074;9.952;2022-08-21T05:47:19;4.05;;;2.65;;
8232;SDS011;4157;48.074;9.952;2022-08-21T05:49:47;4.65;;;2.67;;
8232;SDS011;4157;48.074;9.952;2022-08-21T05:52:18;3.67;;;2.33;;
8232;SDS011;4157;48.074;9.952;2022-08-21T05:54:45;4.10;;;2.20;;
8232;SDS011;4157;48.074;9.952;2022-08-21T05:57:15;4.47;;;2.72;;
8232;SDS011;4157;48.074;9.952;2022-08-21T05:59:42;4.88;;;2.17;;
8232;SDS011;4157;48.074;9.952;2022-08-21T06:02:10;6.03;;;3.00;;
8232;SDS011;4157;48.074;9.952;2022-08-21T06:04:38;3.80;;;2.47;;
8232;SDS011;4157;48.074;9.952;2022-08-21T06:07:06;3.90;;;2.53;;
8232;SDS011;4157;48.074;9.952;2022-08-21T06:09:34;4.18;;;2.67;;
8232;SDS011;4157;48.074;9.952;2022-08-21T06:12:04;5.60;;;2.90;;
8232;SDS011;4157;48.074;9.952;2022-08-21T06:14:33;5.38;;;2.47;;
8232;SDS011;4157;48.074;9.952;2022-08-21T06:17:01;3.47;;;2.28;;
8232;SDS011;4157;48.074;9.952;2022-08-21T06:19:30;4.30;;;2.30;;
8232;SDS011;4157;48.074;9.952;2022-08-21T06:21:57;3.90;;;2.38;;
8232;SDS011;4157;48.074;9.952;2022-08-21T06:24:25;3.92;;;2.50;;
8232;SDS011;4157;48.074;9.952;2022-08-21T06:26:53;4.70;;;2.53;;
8232;SDS011;4157;48.074;9.952;2022-08-21T06:29:21;7.07;;;3.28;;
8232;SDS011;4157;48.074;9.952;2022-08-21T06:31:51;4.22;;;2.90;;
8232;SDS011;4157;48.074;9.952;2022-08-21T06:34:19;4.78;;;2.97;;
8232;SDS011;4157;48.074;9.952;2022-08-21T06:36:47;5.05;;;3.17;;
8232;SDS011;4157;48.074;9.952;2022-08-21T06:39:15;4.95;;;2.63;;
8232;SDS011;4157;48.074;9.952;2022-08-21T06:41:42;4.40;;;2.60;;
8232;SDS011;4157;48.074;9.952;2022-08-21T06:44:10;5.20;;;3.10;;
8232;SDS011;4157;48.074;9.952;2022-08-21T06:46:38;5.30;;;3.83;;
8232;SDS011;4157;48.074;9.952;2022-08-21T06:49:07;5.80;;;3.80;;
8232;SDS011;4157;48.074;9.952;2022-08-21T06:51:35;9.23;;;3.42;;
8232;SDS011;4157;48.074;9.952;2022-08-21T06:54:03;5.45;;;3.10;;
8232;SDS011;4157;48.074;9.952;2022-08-21T06:56:31;5.40;;;3.60;;
8232;SDS011;4157;48.074;9.952;2022-08-21T06:59:00;5.05;;;3.15;;
8232;SDS011;4157;48.074;9.952;2022-08-21T07:01:28;5.43;;;3.10;;
8232;SDS011;4157;48.074;9.952;2022-08-21T07:03:56;5.78;;;3.00;;
8232;SDS011;4157;48.074;9.952;2022-08-21T07:06:25;5.55;;;3.15;;
8232;SDS011;4157;48.074;9.952;2022-08-21T07:08:53;6.20;;;3.10;;
8232;SDS011;4157;48.074;9.952;2022-08-21T07:11:22;6.05;;;3.15;;
8232;SDS011;4157;48.074;9.952;2022-08-21T07:13:50;8.63;;;2.85;;
8232;SDS011;4157;48.074;9.952;2022-08-21T07:16:19;6.57;;;2.80;;
8232;SDS011;4157;48.074;9.952;2022-08-21T07:18:47;5.28;;;2.72;;
8232;SDS011;4157;48.074;9.952;2022-08-21T07:21:15;4.85;;;2.78;;
8232;SDS011;4157;48.074;9.952;2022-08-21T07:23:45;5.60;;;2.35;;
8232;SDS011;4157;48.074;9.952;2022-08-21T07:26:14;3.83;;;2.30;;
8232;SDS011;4157;48.074;9.952;2022-08-21T07:28:43;5.38;;;2.55;;
8232;SDS011;4157;48.074;9.952;2022-08-21T07:31:11;6.60;;;2.67;;
8232;SDS011;4157;48.074;9.952;2022-08-21T07:33:41;7.50;;;2.20;;
8232;SDS011;4157;48.074;9.952;2022-08-21T07:36:09;9.38;;;3.15;;
8232;SDS011;4157;48.074;9.952;2022-08-21T07:38:37;6.13;;;2.85;;
8232;SDS011;4157;48.074;9.952;2022-08-21T07:41:07;5.93;;;2.80;;
8232;SDS011;4157;48.074;9.952;2022-08-21T07:43:37;4.70;;;2.30;;
8232;SDS011;4157;48.074;9.952;2022-08-21T07:46:05;4.57;;;2.47;;
8232;SDS011;4157;48.074;9.952;2022-08-21T07:48:33;3.92;;;2.30;;
8232;SDS011;4157;48.074;9.952;2022-08-21T07:51:02;3.83;;;2.33;;
8232;SDS011;4157;48.074;9.952;2022-08-21T07:53:30;6.13;;;2.58;;
8232;SDS011;4157;48.074;9.952;2022-08-21T07:55:58;6.28;;;2.40;;
8232;SDS011;4157;48.074;9.952;2022-08-21T07:58:28;6.90;;;2.17;;
8232;SDS011;4157;48.074;9.952;2022-08-21T08:00:56;4.53;;;2.53;;
8232;SDS011;4157;48.074;9.952;2022-08-21T08:03:23;5.63;;;3.00;;
8232;SDS011;4157;48.074;9.952;2022-08-21T08:05:51;6.57;;;2.92;;
8232;SDS011;4157;48.074;9.952;2022-08-21T08:08:19;6.38;;;2.88;;
8232;SDS011;4157;48.074;9.952;2022-08-21T08:10:47;5.35;;;3.05;;
8232;SDS011;4157;48.074;9.952;2022-08-21T08:13:15;5.55;;;3.05;;
8232;SDS011;4157;48.074;9.952;2022-08-21T08:15:45;4.90;;;3.00;;
8232;SDS011;4157;48.074;9.952;2022-08-21T08:18:12;5.72;;;3.13;;
8232;SDS011;4157;48.074;9.952;2022-08-21T08:20:40;6.68;;;2.90;;
8232;SDS011;4157;48.074;9.952;2022-08-21T08:23:09;7.38;;;3.03;;
8232;SDS011;4157;48.074;9.952;2022-08-21T08:25:37;4.72;;;2.80;;
8232;SDS011;4157;48.074;9.952;2022-08-21T08:28:05;5.38;;;2.47;;
8232;SDS011;4157;48.074;9.952;2022-08-21T08:30:33;7.32;;;3.00;;
8232;SDS011;4157;48.074;9.952;2022-08-21T08:33:03;4.40;;;2.80;;
8232;SDS011;4157;48.074;9.952;2022-08-21T08:35:31;5.25;;;2.95;;
8232;SDS011;4157;48.074;9.952;2022-08-21T08:37:58;7.68;;;3.00;;
8232;SDS011;4157;48.074;9.952;2022-08-21T08:40:28;5.07;;;2.78;;
8232;SDS011;4157;48.074;9.952;2022-08-21T08:42:58;6.68;;;3.63;;
8232;SDS011;4157;48.074;9.952;2022-08-21T08:45:26;5.72;;;3.20;;
8232;SDS011;4157;48.074;9.952;2022-08-21T08:47:58;7.00;;;3.17;;
8232;SDS011;4157;48.074;9.952;2022-08-21T08:50:32;5.55;;;3.22;;
8232;SDS011;4157;48.074;9.952;2022-08-21T08:53:02;7.43;;;3.70;;
8232;SDS011;4157;48.074;9.952;2022-08-21T08:55:32;5.93;;;3.22;;
8232;SDS011;4157;48.074;9.952;2022-08-21T08:58:01;6.40;;;3.42;;
8232;SDS011;4157;48.074;9.952;2022-08-21T09:00:29;5.88;;;3.70;;
8232;SDS011;4157;48.074;9.952;2022-08-21T09:02:59;5.55;;;3.47;;
8232;SDS011;4157;48.074;9.952;2022-08-21T09:05:28;8.05;;;3.05;;
8232;SDS011;4157;48.074;9.952;2022-08-21T09:08:02;8.68;;;3.08;;
8232;SDS011;4157;48.074;9.952;2022-08-21T09:10:34;5.25;;;2.90;;
8232;SDS011;4157;48.074;9.952;2022-08-21T09:13:06;5.13;;;3.10;;
8232;SDS011;4157;48.074;9.952;2022-08-21T09:15:36;6.10;;;2.72;;
8232;SDS011;4157;48.074;9.952;2022-08-21T09:18:16;6.97;;;2.75;;
8232;SDS011;4157;48.074;9.952;2022-08-21T09:20:47;6.80;;;2.70;;
8232;SDS011;4157;48.074;9.952;2022-08-21T09:23:21;5.68;;;2.70;;
8232;SDS011;4157;48.074;9.952;2022-08-21T09:26:11;5.68;;;2.92;;
8232;SDS011;4157;48.074;9.952;2022-08-21T09:28:40;6.07;;;2.85;;
8232;SDS011;4157;48.074;9.952;2022-08-21T09:31:08;6.28;;;2.70;;
8232;SDS011;4157;48.074;9.952;2022-08-21T09:33:39;7.07;;;2.83;;
8232;SDS011;4157;48.074;9.952;2022-08-21T09:36:07;5.32;;;2.80;;
8232;SDS011;4157;48.074;9.952;2022-08-21T09:38:36;8.27;;;2.72;;
8232;SDS011;4157;48.074;9.952;2022-08-21T09:41:05;6.55;;;2.92;;
8232;SDS011;4157;48.074;9.952;2022-08-21T09:43:34;9.05;;;2.47;;
8232;SDS011;4157;48.074;9.952;2022-08-21T09:46:04;5.82;;;2.90;;
8232;SDS011;4157;48.074;9.952;2022-08-21T09:48:39;8.43;;;2.67;;
8232;SDS011;4157;48.074;9.952;2022-08-21T09:51:07;5.00;;;2.70;;
8232;SDS011;4157;48.074;9.952;2022-08-21T09:53:38;7.82;;;3.40;;
8232;SDS011;4157;48.074;9.952;2022-08-21T09:56:16;7.20;;;2.92;;
8232;SDS011;4157;48.074;9.952;2022-08-21T09:59:11;4.95;;;2.38;;
8232;SDS011;4157;48.074;9.952;2022-08-21T10:01:42;4.95;;;2.30;;
8232;SDS011;4157;48.074;9.952;2022-08-21T10:04:10;7.80;;;3.13;;
8232;SDS011;4157;48.074;9.952;2022-08-21T10:06:38;8.05;;;3.53;;
8232;SDS011;4157;48.074;9.952;2022-08-21T10:09:08;6.03;;;2.90;;
8232;SDS011;4157;48.074;9.952;2022-08-21T10:11:37;6.40;;;3.03;;
8232;SDS011;4157;48.074;9.952;2022-08-21T10:14:08;5.15;;;2.42;;
8232;SDS011;4157;48.074;9.952;2022-08-21T10:16:42;8.07;;;2.70;;
8232;SDS011;4157;48.074;9.952;2022-08-21T10:19:15;6.70;;;2.70;;
8232;SDS011;4157;48.074;9.952;2022-08-21T10:21:46;9.57;;;4.18;;
8232;SDS011;4157;48.074;9.952;2022-08-21T10:24:24;7.32;;;2.88;;
8232;SDS011;4157;48.074;9.952;2022-08-21T10:26:54;6.35;;;2.72;;
8232;SDS011;4157;48.074;9.952;2022-08-21T10:29:30;6.47;;;3.10;;
8232;SDS011;4157;48.074;9.952;2022-08-21T10:32:07;6.18;;;2.55;;
8232;SDS011;4157;48.074;9.952;2022-08-21T10:34:40;5.75;;;2.30;;
8232;SDS011;4157;48.074;9.952;2022-08-21T10:37:13;5.25;;;2.47;;
8232;SDS011;4157;48.074;9.952;2022-08-21T10:39:47;7.63;;;2.97;;
8232;SDS011;4157;48.074;9.952;2022-08-21T10:42:21;4.93;;;2.55;;
8232;SDS011;4157;48.074;9.952;2022-08-21T10:44:53;4.70;;;2.30;;
8232;SDS011;4157;48.074;9.952;2022-08-21T10:47:24;5.90;;;2.40;;
8232;SDS011;4157;48.074;9.952;2022-08-21T10:49:57;6.63;;;2.60;;
8232;SDS011;4157;48.074;9.952;2022-08-21T10:52:33;6.13;;;2.50;;
8232;SDS011;4157;48.074;9.952;2022-08-21T10:55:06;6.20;;;2.47;;
8232;SDS011;4157;48.074;9.952;2022-08-21T10:57:38;5.13;;;2.33;;
8232;SDS011;4157;48.074;9.952;2022-08-21T11:00:09;6.03;;;2.40;;
8232;SDS011;4157;48.074;9.952;2022-08-21T11:02:38;5.38;;;2.35;;
8232;SDS011;4157;48.074;9.952;2022-08-21T11:05:10;6.63;;;2.67;;
8232;SDS011;4157;48.074;9.952;2022-08-21T11:07:42;5.50;;;2.50;;
8232;SDS011;4157;48.074;9.952;2022-08-21T11:10:15;6.47;;;2.40;;
8232;SDS011;4157;48.074;9.952;2022-08-21T11:12:44;7.85;;;2.15;;
8232;SDS011;4157;48.074;9.952;2022-08-21T11:15:19;7.40;;;2.80;;
8232;SDS011;4157;48.074;9.952;2022-08-21T11:17:50;6.05;;;2.08;;
8232;SDS011;4157;48.074;9.952;2022-08-21T11:20:24;4.35;;;2.10;;
8232;SDS011;4157;48.074;9.952;2022-08-21T11:22:57;5.43;;;2.13;;
8232;SDS011;4157;48.074;9.952;2022-08-21T11:25:27;6.70;;;2.20;;
8232;SDS011;4157;48.074;9.952;2022-08-21T11:27:58;5.07;;;2.30;;
8232;SDS011;4157;48.074;9.952;2022-08-21T11:30:36;5.65;;;2.40;;
8232;SDS011;4157;48.074;9.952;2022-08-21T11:33:08;4.53;;;1.85;;
8232;SDS011;4157;48.074;9.952;2022-08-21T11:35:42;5.88;;;1.90;;
8232;SDS011;4157;48.074;9.952;2022-08-21T11:38:17;4.17;;;2.03;;
8232;SDS011;4157;48.074;9.952;2022-08-21T11:40:52;6.65;;;2.20;;
8232;SDS011;4157;48.074;9.952;2022-08-21T11:43:24;4.63;;;2.15;;
8232;SDS011;4157;48.074;9.952;2022-08-21T11:45:56;4.78;;;1.80;;
8232;SDS011;4157;48.074;9.952;2022-08-21T11:48:32;5.05;;;2.10;;
8232;SDS011;4157;48.074;9.952;2022-08-21T11:51:02;4.90;;;2.20;;
8232;SDS011;4157;48.074;9.952;2022-08-21T11:53:32;5.43;;;2.22;;
8232;SDS011;4157;48.074;9.952;2022-08-21T11:56:05;5.95;;;2.22;;
8232;SDS011;4157;48.074;9.952;2022-08-21T11:58:36;5.82;;;2.17;;
8232;SDS011;4157;48.074;9.952;2022-08-21T12:01:06;5.80;;;2.38;;
8232;SDS011;4157;48.074;9.952;2022-08-21T12:03:37;5.00;;;2.25;;
8232;SDS011;4157;48.074;9.952;2022-08-21T12:06:06;6.20;;;2.10;;
8232;SDS011;4157;48.074;9.952;2022-08-21T12:08:35;4.78;;;2.17;;
8232;SDS011;4157;48.074;9.952;2022-08-21T12:11:07;4.88;;;1.80;;
8232;SDS011;4157;48.074;9.952;2022-08-21T12:13:36;6.57;;;2.08;;
8232;SDS011;4157;48.074;9.952;2022-08-21T12:16:05;5.55;;;2.28;;
8232;SDS011;4157;48.074;9.952;2022-08-21T12:18:33;5.15;;;1.98;;
8232;SDS011;4157;48.074;9.952;2022-08-21T12:21:05;5.40;;;2.20;;
8232;SDS011;4157;48.074;9.952;2022-08-21T12:23:45;4.85;;;2.00;;
8232;SDS011;4157;48.074;9.952;2022-08-21T12:26:24;3.42;;;1.85;;
8232;SDS011;4157;48.074;9.952;2022-08-21T12:29:07;4.10;;;1.80;;
8232;SDS011;4157;48.074;9.952;2022-08-21T12:31:47;4.50;;;1.83;;
8232;SDS011;4157;48.074;9.952;2022-08-21T12:34:15;5.25;;;1.83;;
8232;SDS011;4157;48.074;9.952;2022-08-21T12:36:44;3.42;;;1.70;;
8232;SDS011;4157;48.074;9.952;2022-08-21T12:39:14;4.10;;;1.83;;
8232;SDS011;4157;48.074;9.952;2022-08-21T12:41:47;4.50;;;1.60;;
8232;SDS011;4157;48.074;9.952;2022-08-21T12:44:16;3.83;;;1.80;;
8232;SDS011;4157;48.074;9.952;2022-08-21T12:46:46;4.40;;;1.73;;
8232;SDS011;4157;48.074;9.952;2022-08-21T12:49:15;4.18;;;2.05;;
8232;SDS011;4157;48.074;9.952;2022-08-21T12:51:47;4.43;;;1.80;;
8232;SDS011;4157;48.074;9.952;2022-08-21T12:54:22;5.18;;;1.55;;
8232;SDS011;4157;48.074;9.952;2022-08-21T12:56:59;4.13;;;1.80;;
8232;SDS011;4157;48.074;9.952;2022-08-21T12:59:28;5.95;;;1.92;;
8232;SDS011;4157;48.074;9.952;2022-08-21T13:01:56;5.55;;;1.75;;
8232;SDS011;4157;48.074;9.952;2022-08-21T13:04:26;5.30;;;1.75;;
8232;SDS011;4157;48.074;9.952;2022-08-21T13:06:59;4.85;;;1.60;;
8232;SDS011;4157;48.074;9.952;2022-08-21T13:09:28;3.85;;;1.55;;
8232;SDS011;4157;48.074;9.952;2022-08-21T13:11:56;4.32;;;1.70;;
8232;SDS011;4157;48.074;9.952;2022-08-21T13:14:28;3.58;;;1.40;;
8232;SDS011;4157;48.074;9.952;2022-08-21T13:16:57;3.42;;;1.70;;
8232;SDS011;4157;48.074;9.952;2022-08-21T13:19:25;3.38;;;1.60;;
8232;SDS011;4157;48.074;9.952;2022-08-21T13:21:55;4.18;;;1.50;;
8232;SDS011;4157;48.074;9.952;2022-08-21T13:24:24;5.15;;;1.70;;
8232;SDS011;4157;48.074;9.952;2022-08-21T13:26:52;8.30;;;1.95;;
8232;SDS011;4157;48.074;9.952;2022-08-21T13:29:21;3.50;;;1.70;;
8232;SDS011;4157;48.074;9.952;2022-08-21T13:31:52;6.43;;;1.80;;
8232;SDS011;4157;48.074;9.952;2022-08-21T13:34:20;6.55;;;1.90;;
8232;SDS011;4157;48.074;9.952;2022-08-21T13:36:51;3.38;;;1.60;;
8232;SDS011;4157;48.074;9.952;2022-08-21T13:39:20;3.22;;;1.60;;
8232;SDS011;4157;48.074;9.952;2022-08-21T13:41:49;4.70;;;1.80;;
8232;SDS011;4157;48.074;9.952;2022-08-21T13:44:18;5.45;;;1.65;;
8232;SDS011;4157;48.074;9.952;2022-08-21T13:46:47;7.90;;;1.67;;
8232;SDS011;4157;48.074;9.952;2022-08-21T13:49:17;2.80;;;1.60;;
8232;SDS011;4157;48.074;9.952;2022-08-21T13:51:46;3.25;;;1.45;;
8232;SDS011;4157;48.074;9.952;2022-08-21T13:54:21;3.97;;;1.40;;
8232;SDS011;4157;48.074;9.952;2022-08-21T13:56:52;2.85;;;1.50;;
8232;SDS011;4157;48.074;9.952;2022-08-21T13:59:24;3.72;;;1.70;;
8232;SDS011;4157;48.074;9.952;2022-08-21T14:01:53;2.87;;;1.33;;
8232;SDS011;4157;48.074;9.952;2022-08-21T14:04:29;4.65;;;1.65;;
8232;SDS011;4157;48.074;9.952;2022-08-21T14:06:58;3.03;;;1.35;;
8232;SDS011;4157;48.074;9.952;2022-08-21T14:09:28;4.40;;;1.60;;
8232;SDS011;4157;48.074;9.952;2022-08-21T14:11:56;3.90;;;1.38;;
8232;SDS011;4157;48.074;9.952;2022-08-21T14:14:26;4.00;;;1.58;;
8232;SDS011;4157;48.074;9.952;2022-08-21T14:16:57;4.03;;;1.70;;
8232;SDS011;4157;48.074;9.952;2022-08-21T14:19:27;3.10;;;1.45;;
8232;SDS011;4157;48.074;9.952;2022-08-21T14:21:55;4.57;;;1.70;;
8232;SDS011;4157;48.074;9.952;2022-08-21T14:24:27;2.90;;;1.60;;
8232;SDS011;4157;48.074;9.952;2022-08-21T14:26:56;3.90;;;1.40;;
8232;SDS011;4157;48.074;9.952;2022-08-21T14:29:25;3.72;;;1.48;;
8232;SDS011;4157;48.074;9.952;2022-08-21T14:31:54;2.50;;;1.13;;
8232;SDS011;4157;48.074;9.952;2022-08-21T14:34:23;2.88;;;1.40;;
8232;SDS011;4157;48.074;9.952;2022-08-21T14:36:54;2.85;;;1.30;;
8232;SDS011;4157;48.074;9.952;2022-08-21T14:39:22;2.75;;;1.38;;
8232;SDS011;4157;48.074;9.952;2022-08-21T14:41:50;3.70;;;1.33;;
8232;SDS011;4157;48.074;9.952;2022-08-21T14:44:19;3.40;;;1.50;;
8232;SDS011;4157;48.074;9.952;2022-08-21T14:46:47;6.20;;;1.65;;
8232;SDS011;4157;48.074;9.952;2022-08-21T14:49:15;2.78;;;1.40;;
8232;SDS011;4157;48.074;9.952;2022-08-21T14:51:43;3.80;;;1.60;;
8232;SDS011;4157;48.074;9.952;2022-08-21T14:54:12;6.53;;;2.00;;
8232;SDS011;4157;48.074;9.952;2022-08-21T14:56:40;4.05;;;1.70;;
8232;SDS011;4157;48.074;9.952;2022-08-21T14:59:08;2.90;;;1.63;;
8232;SDS011;4157;48.074;9.952;2022-08-21T15:01:36;3.15;;;1.42;;
8232;SDS011;4157;48.074;9.952;2022-08-21T15:04:05;3.47;;;1.80;;
8232;SDS011;4157;48.074;9.952;2022-08-21T15:06:32;2.10;;;1.30;;
8232;SDS011;4157;48.074;9.952;2022-08-21T15:09:00;3.90;;;1.60;;
8232;SDS011;4157;48.074;9.952;2022-08-21T15:11:31;4.53;;;1.70;;
8232;SDS011;4157;48.074;9.952;2022-08-21T15:14:00;5.50;;;1.50;;
8232;SDS011;4157;48.074;9.952;2022-08-21T15:16:32;4.53;;;1.83;;
8232;SDS011;4157;48.074;9.952;2022-08-21T15:19:00;3.38;;;1.50;;
8232;SDS011;4157;48.074;9.952;2022-08-21T15:21:28;4.28;;;1.73;;
8232;SDS011;4157;48.074;9.952;2022-08-21T15:23:56;3.95;;;1.50;;
8232;SDS011;4157;48.074;9.952;2022-08-21T15:26:24;5.80;;;1.70;;
8232;SDS011;4157;48.074;9.952;2022-08-21T15:28:53;4.28;;;1.70;;